sensor_id;sensor_type;location;lat;lon;timestamp;P1;durP1;ratioP1;P2;durP2;ratioP2
75171;SDS011;63750;52.418;20.742;2023-08-20T00:02:38;24.40;;;21.80;;
75171;SDS011;63750;52.418;20.742;2023-08-20T00:05:29;23.30;;;21.10;;
75171;SDS011;63750;52.418;20.742;2023-08-20T00:08:19;24.90;;;22.50;;
75171;SDS011;63750;52.418;20.742;2023-08-20T00:11:08;25.20;;;22.80;;
75171;SDS011;63750;52.418;20.742;2023-08-20T00:13:58;24.60;;;22.10;;
75171;SDS011;63750;52.418;20.742;2023-08-20T00:16:48;24.40;;;21.90;;
75171;SDS011;63750;52.418;20.742;2023-08-20T00:19:38;25.40;;;22.80;;
75171;SDS011;63750;52.418;20.742;2023-08-20T00:22:27;23.20;;;20.90;;
75171;SDS011;63750;52.418;20.742;2023-08-20T00:25:17;24.50;;;22.10;;
75171;SDS011;63750;52.418;20.742;2023-08-20T00:28:06;21.90;;;19.60;;
75171;SDS011;63750;52.418;20.742;2023-08-20T00:30:55;22.20;;;20.00;;
75171;SDS011;63750;52.418;20.742;2023-08-20T00:33:44;23.60;;;21.10;;
75171;SDS011;63750;52.418;20.742;2023-08-20T00:36:33;23.00;;;20.70;;
75171;SDS011;63750;52.418;20.742;2023-08-20T00:39:22;23.80;;;21.50;;
75171;SDS011;63750;52.418;20.742;2023-08-20T00:42:11;25.10;;;22.70;;
75171;SDS011;63750;52.418;20.742;2023-08-20T00:45:00;24.00;;;21.50;;
75171;SDS011;63750;52.418;20.742;2023-08-20T00:47:49;22.50;;;20.20;;
75171;SDS011;63750;52.418;20.742;2023-08-20T00:50:39;22.50;;;19.80;;
75171;SDS011;63750;52.418;20.742;2023-08-20T00:53:28;22.50;;;20.30;;
75171;SDS011;63750;52.418;20.742;2023-08-20T00:56:17;23.00;;;20.70;;
75171;SDS011;63750;52.418;20.742;2023-08-20T00:59:06;21.00;;;18.90;;
75171;SDS011;63750;52.418;20.742;2023-08-20T01:01:56;22.20;;;19.90;;
75171;SDS011;63750;52.418;20.742;2023-08-20T01:04:45;21.30;;;19.10;;
75171;SDS011;63750;52.418;20.742;2023-08-20T01:07:38;22.50;;;19.60;;
75171;SDS011;63750;52.418;20.742;2023-08-20T01:10:36;20.00;;;17.90;;
75171;SDS011;63750;52.418;20.742;2023-08-20T01:13:34;21.60;;;19.50;;
75171;SDS011;63750;52.418;20.742;2023-08-20T01:16:23;22.80;;;20.50;;
75171;SDS011;63750;52.418;20.742;2023-08-20T01:19:14;25.00;;;22.50;;
75171;SDS011;63750;52.418;20.742;2023-08-20T01:25:28;21.40;;;19.30;;
75171;SDS011;63750;52.418;20.742;2023-08-20T01:28:25;21.10;;;19.00;;
75171;SDS011;63750;52.418;20.742;2023-08-20T01:31:15;21.40;;;19.30;;
75171;SDS011;63750;52.418;20.742;2023-08-20T01:34:05;21.40;;;19.30;;
75171;SDS011;63750;52.418;20.742;2023-08-20T01:36:54;21.50;;;19.40;;
75171;SDS011;63750;52.418;20.742;2023-08-20T01:39:43;22.70;;;20.40;;
75171;SDS011;63750;52.418;20.742;2023-08-20T01:42:31;23.60;;;21.30;;
75171;SDS011;63750;52.418;20.742;2023-08-20T01:45:20;22.10;;;20.00;;
75171;SDS011;63750;52.418;20.742;2023-08-20T01:48:09;24.60;;;22.00;;
75171;SDS011;63750;52.418;20.742;2023-08-20T01:50:58;24.60;;;22.10;;
75171;SDS011;63750;52.418;20.742;2023-08-20T01:53:47;20.90;;;18.90;;
75171;SDS011;63750;52.418;20.742;2023-08-20T01:56:36;20.00;;;18.00;;
75171;SDS011;63750;52.418;20.742;2023-08-20T01:59:24;23.60;;;21.20;;
75171;SDS011;63750;52.418;20.742;2023-08-20T02:02:13;24.80;;;22.40;;
75171;SDS011;63750;52.418;20.742;2023-08-20T02:05:02;22.30;;;20.10;;
75171;SDS011;63750;52.418;20.742;2023-08-20T02:07:51;23.00;;;20.70;;
75171;SDS011;63750;52.418;20.742;2023-08-20T02:10:40;21.40;;;19.30;;
75171;SDS011;63750;52.418;20.742;2023-08-20T02:13:30;23.30;;;20.90;;
75171;SDS011;63750;52.418;20.742;2023-08-20T02:16:19;23.70;;;21.40;;
75171;SDS011;63750;52.418;20.742;2023-08-20T02:19:07;21.40;;;19.30;;
75171;SDS011;63750;52.418;20.742;2023-08-20T02:21:56;22.60;;;20.40;;
75171;SDS011;63750;52.418;20.742;2023-08-20T02:24:45;20.30;;;18.20;;
75171;SDS011;63750;52.418;20.742;2023-08-20T02:27:34;21.30;;;19.30;;
75171;SDS011;63750;52.418;20.742;2023-08-20T02:30:23;23.40;;;21.00;;
75171;SDS011;63750;52.418;20.742;2023-08-20T02:33:12;24.00;;;21.60;;
75171;SDS011;63750;52.418;20.742;2023-08-20T02:36:02;23.70;;;21.20;;
75171;SDS011;63750;52.418;20.742;2023-08-20T02:38:51;22.70;;;20.50;;
75171;SDS011;63750;52.418;20.742;2023-08-20T02:41:40;24.00;;;21.20;;
75171;SDS011;63750;52.418;20.742;2023-08-20T02:44:29;21.70;;;19.60;;
75171;SDS011;63750;52.418;20.742;2023-08-20T02:47:18;23.40;;;21.10;;
75171;SDS011;63750;52.418;20.742;2023-08-20T02:50:07;21.60;;;19.50;;
75171;SDS011;63750;52.418;20.742;2023-08-20T02:52:56;23.90;;;21.50;;
75171;SDS011;63750;52.418;20.742;2023-08-20T02:55:45;23.40;;;21.10;;
75171;SDS011;63750;52.418;20.742;2023-08-20T02:58:34;22.40;;;20.20;;
75171;SDS011;63750;52.418;20.742;2023-08-20T03:01:24;26.80;;;24.10;;
75171;SDS011;63750;52.418;20.742;2023-08-20T03:04:14;24.40;;;21.90;;
75171;SDS011;63750;52.418;20.742;2023-08-20T03:07:02;23.20;;;20.70;;
75171;SDS011;63750;52.418;20.742;2023-08-20T03:09:51;24.20;;;21.80;;
75171;SDS011;63750;52.418;20.742;2023-08-20T03:12:40;24.50;;;22.00;;
75171;SDS011;63750;52.418;20.742;2023-08-20T03:15:29;24.00;;;21.50;;
75171;SDS011;63750;52.418;20.742;2023-08-20T03:18:18;22.60;;;20.30;;
75171;SDS011;63750;52.418;20.742;2023-08-20T03:21:07;22.90;;;20.60;;
75171;SDS011;63750;52.418;20.742;2023-08-20T03:23:56;20.70;;;18.60;;
75171;SDS011;63750;52.418;20.742;2023-08-20T03:26:45;22.50;;;20.20;;
75171;SDS011;63750;52.418;20.742;2023-08-20T03:29:34;25.80;;;23.10;;
75171;SDS011;63750;52.418;20.742;2023-08-20T03:32:22;27.20;;;24.50;;
75171;SDS011;63750;52.418;20.742;2023-08-20T03:35:11;23.80;;;21.50;;
75171;SDS011;63750;52.418;20.742;2023-08-20T03:38:00;24.60;;;22.00;;
75171;SDS011;63750;52.418;20.742;2023-08-20T03:40:49;23.10;;;20.80;;
75171;SDS011;63750;52.418;20.742;2023-08-20T03:43:38;23.80;;;21.50;;
75171;SDS011;63750;52.418;20.742;2023-08-20T03:46:27;23.00;;;20.60;;
75171;SDS011;63750;52.418;20.742;2023-08-20T03:49:16;24.30;;;21.90;;
75171;SDS011;63750;52.418;20.742;2023-08-20T03:52:05;21.90;;;19.80;;
75171;SDS011;63750;52.418;20.742;2023-08-20T03:54:54;20.40;;;18.50;;
75171;SDS011;63750;52.418;20.742;2023-08-20T03:57:42;22.10;;;19.90;;
75171;SDS011;63750;52.418;20.742;2023-08-20T04:00:31;20.10;;;18.20;;
75171;SDS011;63750;52.418;20.742;2023-08-20T04:03:21;21.90;;;19.80;;
75171;SDS011;63750;52.418;20.742;2023-08-20T04:06:10;19.90;;;18.10;;
75171;SDS011;63750;52.418;20.742;2023-08-20T04:08:58;20.40;;;18.40;;
75171;SDS011;63750;52.418;20.742;2023-08-20T04:11:47;20.90;;;18.90;;
75171;SDS011;63750;52.418;20.742;2023-08-20T04:14:36;19.30;;;17.50;;
75171;SDS011;63750;52.418;20.742;2023-08-20T04:17:25;18.90;;;17.00;;
75171;SDS011;63750;52.418;20.742;2023-08-20T04:20:14;18.50;;;16.70;;
75171;SDS011;63750;52.418;20.742;2023-08-20T04:23:03;19.90;;;17.90;;
75171;SDS011;63750;52.418;20.742;2023-08-20T04:25:52;20.20;;;18.30;;
75171;SDS011;63750;52.418;20.742;2023-08-20T04:28:41;20.80;;;18.90;;
75171;SDS011;63750;52.418;20.742;2023-08-20T04:31:30;20.60;;;18.70;;
75171;SDS011;63750;52.418;20.742;2023-08-20T04:34:18;20.30;;;18.30;;
75171;SDS011;63750;52.418;20.742;2023-08-20T04:37:07;20.80;;;18.80;;
75171;SDS011;63750;52.418;20.742;2023-08-20T04:39:56;23.30;;;21.00;;
75171;SDS011;63750;52.418;20.742;2023-08-20T04:42:45;24.90;;;22.40;;
75171;SDS011;63750;52.418;20.742;2023-08-20T04:45:34;21.40;;;19.40;;
75171;SDS011;63750;52.418;20.742;2023-08-20T04:48:22;21.30;;;19.10;;
75171;SDS011;63750;52.418;20.742;2023-08-20T04:51:11;21.50;;;19.40;;
75171;SDS011;63750;52.418;20.742;2023-08-20T04:54:00;21.80;;;19.60;;
75171;SDS011;63750;52.418;20.742;2023-08-20T04:56:49;22.60;;;20.50;;
75171;SDS011;63750;52.418;20.742;2023-08-20T04:59:38;24.10;;;21.70;;
75171;SDS011;63750;52.418;20.742;2023-08-20T05:02:27;19.40;;;17.50;;
75171;SDS011;63750;52.418;20.742;2023-08-20T05:05:16;22.90;;;20.60;;
75171;SDS011;63750;52.418;20.742;2023-08-20T05:08:05;20.00;;;18.20;;
75171;SDS011;63750;52.418;20.742;2023-08-20T05:10:54;21.10;;;18.90;;
75171;SDS011;63750;52.418;20.742;2023-08-20T05:13:44;21.20;;;19.10;;
75171;SDS011;63750;52.418;20.742;2023-08-20T05:16:34;20.10;;;18.10;;
75171;SDS011;63750;52.418;20.742;2023-08-20T05:19:23;21.30;;;19.30;;
75171;SDS011;63750;52.418;20.742;2023-08-20T05:22:12;20.80;;;18.50;;
75171;SDS011;63750;52.418;20.742;2023-08-20T05:25:00;24.80;;;22.40;;
75171;SDS011;63750;52.418;20.742;2023-08-20T05:27:49;22.00;;;19.90;;
75171;SDS011;63750;52.418;20.742;2023-08-20T05:30:38;21.70;;;19.60;;
75171;SDS011;63750;52.418;20.742;2023-08-20T05:33:27;22.80;;;20.50;;
75171;SDS011;63750;52.418;20.742;2023-08-20T05:36:16;25.80;;;23.20;;
75171;SDS011;63750;52.418;20.742;2023-08-20T05:39:05;29.00;;;26.00;;
75171;SDS011;63750;52.418;20.742;2023-08-20T05:41:54;27.40;;;24.70;;
75171;SDS011;63750;52.418;20.742;2023-08-20T05:44:43;27.00;;;24.40;;
75171;SDS011;63750;52.418;20.742;2023-08-20T05:47:32;26.10;;;23.40;;
75171;SDS011;63750;52.418;20.742;2023-08-20T05:50:21;26.40;;;23.80;;
75171;SDS011;63750;52.418;20.742;2023-08-20T05:53:10;29.10;;;26.10;;
75171;SDS011;63750;52.418;20.742;2023-08-20T05:55:59;28.90;;;25.80;;
75171;SDS011;63750;52.418;20.742;2023-08-20T05:58:48;28.30;;;25.50;;
75171;SDS011;63750;52.418;20.742;2023-08-20T06:01:37;29.70;;;26.60;;
75171;SDS011;63750;52.418;20.742;2023-08-20T06:04:26;27.70;;;24.90;;
75171;SDS011;63750;52.418;20.742;2023-08-20T06:07:15;27.60;;;24.80;;
75171;SDS011;63750;52.418;20.742;2023-08-20T06:10:04;24.50;;;22.10;;
75171;SDS011;63750;52.418;20.742;2023-08-20T06:12:54;26.90;;;24.20;;
75171;SDS011;63750;52.418;20.742;2023-08-20T06:15:43;26.10;;;23.40;;
75171;SDS011;63750;52.418;20.742;2023-08-20T06:18:32;27.30;;;24.40;;
75171;SDS011;63750;52.418;20.742;2023-08-20T06:21:21;28.20;;;25.40;;
75171;SDS011;63750;52.418;20.742;2023-08-20T06:24:10;27.20;;;24.60;;
75171;SDS011;63750;52.418;20.742;2023-08-20T06:26:58;27.80;;;25.00;;
75171;SDS011;63750;52.418;20.742;2023-08-20T06:29:47;22.80;;;20.60;;
75171;SDS011;63750;52.418;20.742;2023-08-20T06:32:36;23.30;;;21.00;;
75171;SDS011;63750;52.418;20.742;2023-08-20T06:35:25;26.70;;;24.00;;
75171;SDS011;63750;52.418;20.742;2023-08-20T06:38:14;23.60;;;21.30;;
75171;SDS011;63750;52.418;20.742;2023-08-20T06:41:03;24.10;;;21.70;;
75171;SDS011;63750;52.418;20.742;2023-08-20T06:43:52;20.30;;;18.20;;
75171;SDS011;63750;52.418;20.742;2023-08-20T06:46:40;20.70;;;18.70;;
75171;SDS011;63750;52.418;20.742;2023-08-20T06:49:29;20.50;;;18.70;;
75171;SDS011;63750;52.418;20.742;2023-08-20T06:52:18;21.80;;;19.70;;
75171;SDS011;63750;52.418;20.742;2023-08-20T06:55:07;25.90;;;23.50;;
75171;SDS011;63750;52.418;20.742;2023-08-20T06:57:56;26.60;;;23.80;;
75171;SDS011;63750;52.418;20.742;2023-08-20T07:00:45;25.20;;;22.80;;
75171;SDS011;63750;52.418;20.742;2023-08-20T07:03:34;22.90;;;20.60;;
75171;SDS011;63750;52.418;20.742;2023-08-20T07:06:24;20.30;;;18.30;;
75171;SDS011;63750;52.418;20.742;2023-08-20T07:09:13;23.30;;;21.10;;
75171;SDS011;63750;52.418;20.742;2023-08-20T07:12:03;23.10;;;21.00;;
75171;SDS011;63750;52.418;20.742;2023-08-20T07:14:56;20.30;;;18.40;;
75171;SDS011;63750;52.418;20.742;2023-08-20T07:17:44;20.20;;;18.40;;
75171;SDS011;63750;52.418;20.742;2023-08-20T07:20:33;23.60;;;21.20;;
75171;SDS011;63750;52.418;20.742;2023-08-20T07:23:22;22.50;;;20.50;;
75171;SDS011;63750;52.418;20.742;2023-08-20T07:26:11;21.30;;;19.30;;
75171;SDS011;63750;52.418;20.742;2023-08-20T07:29:00;21.10;;;19.20;;
75171;SDS011;63750;52.418;20.742;2023-08-20T07:31:49;22.20;;;20.10;;
75171;SDS011;63750;52.418;20.742;2023-08-20T07:34:38;20.40;;;18.50;;
75171;SDS011;63750;52.418;20.742;2023-08-20T07:37:27;20.30;;;18.60;;
75171;SDS011;63750;52.418;20.742;2023-08-20T07:40:15;22.10;;;19.80;;
75171;SDS011;63750;52.418;20.742;2023-08-20T07:43:05;21.60;;;19.70;;
75171;SDS011;63750;52.418;20.742;2023-08-20T07:45:53;22.30;;;20.30;;
75171;SDS011;63750;52.418;20.742;2023-08-20T07:48:42;21.40;;;19.50;;
75171;SDS011;63750;52.418;20.742;2023-08-20T07:51:31;21.10;;;19.10;;
75171;SDS011;63750;52.418;20.742;2023-08-20T07:54:20;19.40;;;17.60;;
75171;SDS011;63750;52.418;20.742;2023-08-20T07:57:09;18.50;;;16.90;;
75171;SDS011;63750;52.418;20.742;2023-08-20T07:59:57;18.90;;;17.20;;
75171;SDS011;63750;52.418;20.742;2023-08-20T08:02:46;17.90;;;16.30;;
75171;SDS011;63750;52.418;20.742;2023-08-20T08:05:35;18.70;;;17.00;;
75171;SDS011;63750;52.418;20.742;2023-08-20T08:08:24;18.20;;;16.60;;
75171;SDS011;63750;52.418;20.742;2023-08-20T08:11:13;18.50;;;16.90;;
75171;SDS011;63750;52.418;20.742;2023-08-20T08:14:02;18.30;;;16.70;;
75171;SDS011;63750;52.418;20.742;2023-08-20T08:16:51;18.10;;;16.50;;
75171;SDS011;63750;52.418;20.742;2023-08-20T08:19:39;16.90;;;15.20;;
75171;SDS011;63750;52.418;20.742;2023-08-20T08:22:28;18.20;;;16.50;;
75171;SDS011;63750;52.418;20.742;2023-08-20T08:25:17;18.30;;;16.60;;
75171;SDS011;63750;52.418;20.742;2023-08-20T08:28:06;18.30;;;16.50;;
75171;SDS011;63750;52.418;20.742;2023-08-20T08:30:55;18.50;;;16.90;;
75171;SDS011;63750;52.418;20.742;2023-08-20T08:33:44;19.20;;;17.50;;
75171;SDS011;63750;52.418;20.742;2023-08-20T08:36:33;19.40;;;17.50;;
75171;SDS011;63750;52.418;20.742;2023-08-20T08:39:22;20.00;;;18.10;;
75171;SDS011;63750;52.418;20.742;2023-08-20T08:42:11;19.30;;;17.30;;
75171;SDS011;63750;52.418;20.742;2023-08-20T08:45:01;20.60;;;18.80;;
75171;SDS011;63750;52.418;20.742;2023-08-20T08:47:51;18.30;;;16.70;;
75171;SDS011;63750;52.418;20.742;2023-08-20T08:50:42;18.20;;;16.60;;
75171;SDS011;63750;52.418;20.742;2023-08-20T08:53:32;19.00;;;17.30;;
75171;SDS011;63750;52.418;20.742;2023-08-20T08:56:22;19.00;;;17.20;;
75171;SDS011;63750;52.418;20.742;2023-08-20T08:59:10;18.00;;;16.30;;
75171;SDS011;63750;52.418;20.742;2023-08-20T09:01:59;18.80;;;17.10;;
75171;SDS011;63750;52.418;20.742;2023-08-20T09:04:48;19.40;;;17.70;;
75171;SDS011;63750;52.418;20.742;2023-08-20T09:07:38;18.60;;;17.00;;
75171;SDS011;63750;52.418;20.742;2023-08-20T09:10:30;19.00;;;17.30;;
75171;SDS011;63750;52.418;20.742;2023-08-20T09:13:20;17.40;;;15.80;;
75171;SDS011;63750;52.418;20.742;2023-08-20T09:16:11;17.80;;;16.10;;
75171;SDS011;63750;52.418;20.742;2023-08-20T09:19:00;19.10;;;17.50;;
75171;SDS011;63750;52.418;20.742;2023-08-20T09:21:50;18.20;;;16.60;;
75171;SDS011;63750;52.418;20.742;2023-08-20T09:24:40;17.70;;;16.10;;
75171;SDS011;63750;52.418;20.742;2023-08-20T09:27:38;18.00;;;16.40;;
75171;SDS011;63750;52.418;20.742;2023-08-20T09:30:27;17.30;;;15.80;;
75171;SDS011;63750;52.418;20.742;2023-08-20T09:33:16;17.40;;;15.80;;
75171;SDS011;63750;52.418;20.742;2023-08-20T09:36:05;18.00;;;16.30;;
75171;SDS011;63750;52.418;20.742;2023-08-20T09:38:56;18.10;;;16.40;;
75171;SDS011;63750;52.418;20.742;2023-08-20T09:41:44;19.10;;;17.30;;
75171;SDS011;63750;52.418;20.742;2023-08-20T09:44:35;17.50;;;16.00;;
75171;SDS011;63750;52.418;20.742;2023-08-20T09:47:26;17.50;;;15.90;;
75171;SDS011;63750;52.418;20.742;2023-08-20T09:50:22;17.50;;;15.90;;
75171;SDS011;63750;52.418;20.742;2023-08-20T09:53:15;17.20;;;15.60;;
75171;SDS011;63750;52.418;20.742;2023-08-20T09:56:10;18.20;;;16.60;;
75171;SDS011;63750;52.418;20.742;2023-08-20T09:59:06;17.10;;;15.60;;
75171;SDS011;63750;52.418;20.742;2023-08-20T10:01:57;17.40;;;15.90;;
75171;SDS011;63750;52.418;20.742;2023-08-20T10:04:47;18.00;;;16.50;;
75171;SDS011;63750;52.418;20.742;2023-08-20T10:07:38;18.40;;;16.70;;
75171;SDS011;63750;52.418;20.742;2023-08-20T10:10:29;19.00;;;17.40;;
75171;SDS011;63750;52.418;20.742;2023-08-20T10:13:18;18.10;;;16.50;;
75171;SDS011;63750;52.418;20.742;2023-08-20T10:16:11;17.30;;;15.90;;
75171;SDS011;63750;52.418;20.742;2023-08-20T10:19:02;16.80;;;15.30;;
75171;SDS011;63750;52.418;20.742;2023-08-20T10:21:53;17.10;;;15.60;;
75171;SDS011;63750;52.418;20.742;2023-08-20T10:24:48;20.00;;;18.20;;
75171;SDS011;63750;52.418;20.742;2023-08-20T10:27:39;18.90;;;17.40;;
75171;SDS011;63750;52.418;20.742;2023-08-20T10:30:29;20.10;;;18.50;;
75171;SDS011;63750;52.418;20.742;2023-08-20T10:33:17;18.90;;;17.40;;
75171;SDS011;63750;52.418;20.742;2023-08-20T10:36:13;17.60;;;16.20;;
75171;SDS011;63750;52.418;20.742;2023-08-20T10:39:04;19.80;;;18.10;;
75171;SDS011;63750;52.418;20.742;2023-08-20T10:42:11;18.00;;;16.50;;
75171;SDS011;63750;52.418;20.742;2023-08-20T10:45:12;17.70;;;16.20;;
75171;SDS011;63750;52.418;20.742;2023-08-20T10:48:01;18.30;;;16.80;;
75171;SDS011;63750;52.418;20.742;2023-08-20T10:50:52;17.10;;;15.70;;
75171;SDS011;63750;52.418;20.742;2023-08-20T10:53:41;16.00;;;14.80;;
75171;SDS011;63750;52.418;20.742;2023-08-20T10:56:39;15.60;;;14.30;;
75171;SDS011;63750;52.418;20.742;2023-08-20T10:59:31;15.80;;;14.50;;
75171;SDS011;63750;52.418;20.742;2023-08-20T11:02:20;15.50;;;14.20;;
75171;SDS011;63750;52.418;20.742;2023-08-20T11:05:17;16.00;;;14.60;;
75171;SDS011;63750;52.418;20.742;2023-08-20T11:08:07;15.90;;;14.60;;
75171;SDS011;63750;52.418;20.742;2023-08-20T11:10:56;15.50;;;14.10;;
75171;SDS011;63750;52.418;20.742;2023-08-20T11:13:45;15.80;;;14.50;;
75171;SDS011;63750;52.418;20.742;2023-08-20T11:16:34;15.60;;;14.30;;
75171;SDS011;63750;52.418;20.742;2023-08-20T11:19:23;15.30;;;14.00;;
75171;SDS011;63750;52.418;20.742;2023-08-20T11:22:12;15.20;;;13.90;;
75171;SDS011;63750;52.418;20.742;2023-08-20T11:25:00;14.80;;;13.70;;
75171;SDS011;63750;52.418;20.742;2023-08-20T11:27:50;14.90;;;13.70;;
75171;SDS011;63750;52.418;20.742;2023-08-20T11:30:39;13.70;;;12.60;;
75171;SDS011;63750;52.418;20.742;2023-08-20T11:33:28;13.50;;;12.20;;
75171;SDS011;63750;52.418;20.742;2023-08-20T11:36:17;15.90;;;14.50;;
75171;SDS011;63750;52.418;20.742;2023-08-20T11:39:08;12.80;;;11.80;;
75171;SDS011;63750;52.418;20.742;2023-08-20T11:41:57;14.50;;;13.30;;
75171;SDS011;63750;52.418;20.742;2023-08-20T11:44:46;14.20;;;13.10;;
75171;SDS011;63750;52.418;20.742;2023-08-20T11:47:39;13.20;;;12.10;;
75171;SDS011;63750;52.418;20.742;2023-08-20T11:50:28;14.10;;;12.90;;
75171;SDS011;63750;52.418;20.742;2023-08-20T11:53:21;13.60;;;12.40;;
75171;SDS011;63750;52.418;20.742;2023-08-20T11:56:14;13.70;;;12.50;;
75171;SDS011;63750;52.418;20.742;2023-08-20T11:59:03;13.10;;;12.10;;
75171;SDS011;63750;52.418;20.742;2023-08-20T12:01:51;13.20;;;12.20;;
75171;SDS011;63750;52.418;20.742;2023-08-20T12:04:42;13.70;;;12.50;;
75171;SDS011;63750;52.418;20.742;2023-08-20T12:07:38;14.20;;;13.00;;
75171;SDS011;63750;52.418;20.742;2023-08-20T12:10:27;13.70;;;12.50;;
75171;SDS011;63750;52.418;20.742;2023-08-20T12:13:17;13.30;;;12.20;;
75171;SDS011;63750;52.418;20.742;2023-08-20T12:16:08;13.30;;;12.30;;
75171;SDS011;63750;52.418;20.742;2023-08-20T12:18:56;14.30;;;13.00;;
75171;SDS011;63750;52.418;20.742;2023-08-20T12:21:45;13.40;;;12.30;;
75171;SDS011;63750;52.418;20.742;2023-08-20T12:24:34;13.80;;;12.60;;
75171;SDS011;63750;52.418;20.742;2023-08-20T12:27:23;13.00;;;11.90;;
75171;SDS011;63750;52.418;20.742;2023-08-20T12:30:13;14.20;;;12.90;;
75171;SDS011;63750;52.418;20.742;2023-08-20T12:33:01;13.00;;;12.00;;
75171;SDS011;63750;52.418;20.742;2023-08-20T12:35:53;13.80;;;12.70;;
75171;SDS011;63750;52.418;20.742;2023-08-20T12:38:42;13.40;;;12.30;;
75171;SDS011;63750;52.418;20.742;2023-08-20T12:41:31;13.20;;;12.10;;
75171;SDS011;63750;52.418;20.742;2023-08-20T12:44:20;13.60;;;12.50;;
75171;SDS011;63750;52.418;20.742;2023-08-20T12:47:09;12.50;;;11.40;;
75171;SDS011;63750;52.418;20.742;2023-08-20T12:49:58;12.50;;;11.50;;
75171;SDS011;63750;52.418;20.742;2023-08-20T12:52:47;14.70;;;13.40;;
75171;SDS011;63750;52.418;20.742;2023-08-20T12:55:36;14.80;;;13.60;;
75171;SDS011;63750;52.418;20.742;2023-08-20T12:58:25;14.20;;;13.10;;
75171;SDS011;63750;52.418;20.742;2023-08-20T13:01:14;14.00;;;12.80;;
75171;SDS011;63750;52.418;20.742;2023-08-20T13:04:03;14.70;;;13.50;;
75171;SDS011;63750;52.418;20.742;2023-08-20T13:06:53;14.30;;;13.10;;
75171;SDS011;63750;52.418;20.742;2023-08-20T13:09:43;15.20;;;14.00;;
75171;SDS011;63750;52.418;20.742;2023-08-20T13:12:33;17.20;;;15.70;;
75171;SDS011;63750;52.418;20.742;2023-08-20T13:15:27;14.30;;;13.10;;
75171;SDS011;63750;52.418;20.742;2023-08-20T13:18:18;15.50;;;14.10;;
75171;SDS011;63750;52.418;20.742;2023-08-20T13:21:07;16.30;;;14.90;;
75171;SDS011;63750;52.418;20.742;2023-08-20T13:23:56;15.20;;;14.00;;
75171;SDS011;63750;52.418;20.742;2023-08-20T13:26:45;14.60;;;13.40;;
75171;SDS011;63750;52.418;20.742;2023-08-20T13:29:34;15.70;;;14.40;;
75171;SDS011;63750;52.418;20.742;2023-08-20T13:32:22;15.80;;;14.40;;
75171;SDS011;63750;52.418;20.742;2023-08-20T13:35:11;14.70;;;13.30;;
75171;SDS011;63750;52.418;20.742;2023-08-20T13:38:00;16.20;;;14.90;;
75171;SDS011;63750;52.418;20.742;2023-08-20T13:40:49;15.60;;;14.40;;
75171;SDS011;63750;52.418;20.742;2023-08-20T13:43:38;16.70;;;15.30;;
75171;SDS011;63750;52.418;20.742;2023-08-20T13:46:27;15.50;;;14.20;;
75171;SDS011;63750;52.418;20.742;2023-08-20T13:49:19;15.60;;;14.20;;
75171;SDS011;63750;52.418;20.742;2023-08-20T13:52:08;15.50;;;14.30;;
75171;SDS011;63750;52.418;20.742;2023-08-20T13:54:57;16.80;;;15.40;;
75171;SDS011;63750;52.418;20.742;2023-08-20T13:57:46;17.40;;;15.80;;
75171;SDS011;63750;52.418;20.742;2023-08-20T14:00:35;17.60;;;16.10;;
75171;SDS011;63750;52.418;20.742;2023-08-20T14:03:24;16.20;;;14.80;;
75171;SDS011;63750;52.418;20.742;2023-08-20T14:06:14;16.80;;;15.30;;
75171;SDS011;63750;52.418;20.742;2023-08-20T14:09:03;17.40;;;15.90;;
75171;SDS011;63750;52.418;20.742;2023-08-20T14:11:52;15.70;;;14.40;;
75171;SDS011;63750;52.418;20.742;2023-08-20T14:14:41;16.70;;;15.30;;
75171;SDS011;63750;52.418;20.742;2023-08-20T14:17:30;16.40;;;15.00;;
75171;SDS011;63750;52.418;20.742;2023-08-20T14:20:19;16.80;;;15.30;;
75171;SDS011;63750;52.418;20.742;2023-08-20T14:23:07;17.30;;;15.80;;
75171;SDS011;63750;52.418;20.742;2023-08-20T14:25:56;16.20;;;14.90;;
75171;SDS011;63750;52.418;20.742;2023-08-20T14:28:45;16.40;;;15.00;;
75171;SDS011;63750;52.418;20.742;2023-08-20T14:31:34;16.20;;;14.80;;
75171;SDS011;63750;52.418;20.742;2023-08-20T14:34:23;15.10;;;13.80;;
75171;SDS011;63750;52.418;20.742;2023-08-20T14:37:12;15.70;;;14.30;;
75171;SDS011;63750;52.418;20.742;2023-08-20T14:40:01;16.90;;;15.40;;
75171;SDS011;63750;52.418;20.742;2023-08-20T14:42:50;16.90;;;15.50;;
75171;SDS011;63750;52.418;20.742;2023-08-20T14:45:39;15.80;;;14.40;;
75171;SDS011;63750;52.418;20.742;2023-08-20T14:48:27;16.10;;;14.70;;
75171;SDS011;63750;52.418;20.742;2023-08-20T14:51:16;14.70;;;13.30;;
75171;SDS011;63750;52.418;20.742;2023-08-20T14:54:05;15.50;;;14.20;;
75171;SDS011;63750;52.418;20.742;2023-08-20T14:56:54;14.80;;;13.60;;
75171;SDS011;63750;52.418;20.742;2023-08-20T14:59:43;14.80;;;13.50;;
75171;SDS011;63750;52.418;20.742;2023-08-20T15:02:32;14.20;;;13.00;;
75171;SDS011;63750;52.418;20.742;2023-08-20T15:05:24;14.10;;;13.00;;
75171;SDS011;63750;52.418;20.742;2023-08-20T15:08:13;13.00;;;12.00;;
75171;SDS011;63750;52.418;20.742;2023-08-20T15:11:02;13.00;;;12.00;;
75171;SDS011;63750;52.418;20.742;2023-08-20T15:13:51;13.90;;;12.70;;
75171;SDS011;63750;52.418;20.742;2023-08-20T15:16:40;12.90;;;11.80;;
75171;SDS011;63750;52.418;20.742;2023-08-20T15:19:29;12.10;;;11.00;;
75171;SDS011;63750;52.418;20.742;2023-08-20T15:22:17;13.20;;;12.00;;
75171;SDS011;63750;52.418;20.742;2023-08-20T15:25:07;13.10;;;12.00;;
75171;SDS011;63750;52.418;20.742;2023-08-20T15:27:56;13.30;;;12.00;;
75171;SDS011;63750;52.418;20.742;2023-08-20T15:30:45;13.00;;;11.70;;
75171;SDS011;63750;52.418;20.742;2023-08-20T15:33:34;12.20;;;11.00;;
75171;SDS011;63750;52.418;20.742;2023-08-20T15:36:25;12.50;;;11.40;;
75171;SDS011;63750;52.418;20.742;2023-08-20T15:39:14;12.60;;;11.50;;
75171;SDS011;63750;52.418;20.742;2023-08-20T15:42:03;12.30;;;11.10;;
75171;SDS011;63750;52.418;20.742;2023-08-20T15:44:52;11.80;;;10.60;;
75171;SDS011;63750;52.418;20.742;2023-08-20T15:47:41;11.70;;;10.60;;
75171;SDS011;63750;52.418;20.742;2023-08-20T15:50:30;12.90;;;11.80;;
75171;SDS011;63750;52.418;20.742;2023-08-20T15:53:19;12.00;;;10.90;;
75171;SDS011;63750;52.418;20.742;2023-08-20T15:56:08;12.90;;;11.70;;
75171;SDS011;63750;52.418;20.742;2023-08-20T15:58:56;13.40;;;12.20;;
75171;SDS011;63750;52.418;20.742;2023-08-20T16:01:45;11.40;;;10.40;;
75171;SDS011;63750;52.418;20.742;2023-08-20T16:04:34;12.00;;;10.90;;
75171;SDS011;63750;52.418;20.742;2023-08-20T16:07:23;12.70;;;11.60;;
75171;SDS011;63750;52.418;20.742;2023-08-20T16:10:12;12.40;;;11.30;;
75171;SDS011;63750;52.418;20.742;2023-08-20T16:13:01;12.60;;;11.60;;
75171;SDS011;63750;52.418;20.742;2023-08-20T16:15:49;13.10;;;12.00;;
75171;SDS011;63750;52.418;20.742;2023-08-20T16:18:38;12.10;;;11.10;;
75171;SDS011;63750;52.418;20.742;2023-08-20T16:21:27;12.70;;;11.60;;